createdAt,value
2023-10-01T00:04:45.764Z,1.33
2023-10-01T00:09:49.147Z,1.87
2023-10-01T00:14:53.965Z,2.10
2023-10-01T00:19:58.626Z,1.60
2023-10-01T00:25:02.015Z,1.70
2023-10-01T00:30:07.875Z,1.40
2023-10-01T00:35:13.459Z,1.30
2023-10-01T00:40:18.587Z,2.33
2023-10-01T00:45:22.026Z,1.47
2023-10-01T00:50:26.676Z,1.27
2023-10-01T00:55:31.348Z,1.43
2023-10-01T01:00:35.825Z,1.37
2023-10-01T01:05:51.706Z,1.43
2023-10-01T01:10:55.529Z,1.77
2023-10-01T01:16:01.657Z,0.90
2023-10-01T01:21:11.252Z,1.33
2023-10-01T01:26:16.244Z,1.23
2023-10-01T01:31:20.365Z,0.93
2023-10-01T01:36:23.955Z,1.13
2023-10-01T01:41:29.990Z,1.23
2023-10-01T01:46:33.301Z,1.20
2023-10-01T01:51:36.684Z,1.13
2023-10-01T01:56:41.268Z,1.27
2023-10-01T02:01:44.933Z,1.43
2023-10-01T02:06:48.730Z,1.00
2023-10-01T02:11:54.025Z,1.07
2023-10-01T02:17:15.054Z,1.10
2023-10-01T02:22:19.125Z,1.13
2023-10-01T02:27:29.754Z,1.10
2023-10-01T02:32:33.049Z,1.20
2023-10-01T02:37:36.918Z,1.30
2023-10-01T02:42:44.455Z,1.10
2023-10-01T02:48:08.652Z,1.00
2023-10-01T02:53:12.211Z,1.30
2023-10-01T02:58:21.704Z,1.57
2023-10-01T03:03:34.377Z,0.70
2023-10-01T03:08:58.760Z,1.10
2023-10-01T03:14:09.819Z,1.70
2023-10-01T03:19:26.223Z,1.40
2023-10-01T03:24:30.576Z,1.40
2023-10-01T03:29:36.880Z,0.97
2023-10-01T03:34:45.158Z,1.23
2023-10-01T03:39:51.359Z,1.10
2023-10-01T03:45:09.867Z,1.17
2023-10-01T03:50:16.350Z,1.20
2023-10-01T03:55:28.558Z,1.50
2023-10-01T04:00:35.986Z,2.03
2023-10-01T04:05:39.277Z,1.50
2023-10-01T04:10:45.028Z,1.60
2023-10-01T04:15:56.605Z,1.27
2023-10-01T04:21:18.135Z,1.93
2023-10-01T04:26:21.477Z,2.07
2023-10-01T04:31:40.292Z,1.97
2023-10-01T04:36:44.622Z,1.90
2023-10-01T04:41:48.204Z,1.90
2023-10-01T04:46:56.534Z,1.57
2023-10-01T04:52:02.079Z,1.50
2023-10-01T04:57:05.528Z,2.40
2023-10-01T05:02:22.987Z,2.03
2023-10-01T05:07:26.788Z,1.87
2023-10-01T05:12:32.326Z,1.27
2023-10-01T05:17:41.408Z,1.47
2023-10-01T05:22:52.350Z,1.73
2023-10-01T05:27:56.670Z,1.10
2023-10-01T05:33:02.418Z,1.43
2023-10-01T05:38:08.652Z,1.63
2023-10-01T05:43:15.635Z,1.43
2023-10-01T05:48:21.494Z,6.17
2023-10-01T05:53:25.496Z,8.80
2023-10-01T05:58:28.987Z,20.43
2023-10-01T06:03:35.226Z,28.17
2023-10-01T06:08:51.138Z,17.30
2023-10-01T06:13:58.094Z,12.70
2023-10-01T06:19:03.081Z,10.43
2023-10-01T06:24:11.535Z,8.07
2023-10-01T06:29:15.282Z,11.87
2023-10-01T06:34:23.016Z,8.37
2023-10-01T06:39:26.861Z,3.20
2023-10-01T06:44:30.193Z,3.60
2023-10-01T06:49:34.840Z,3.13
2023-10-01T06:54:38.411Z,3.50
2023-10-01T06:59:42.703Z,2.43
2023-10-01T07:05:07.845Z,2.63
2023-10-01T07:10:21.409Z,2.63
2023-10-01T07:15:27.042Z,3.13
2023-10-01T07:20:31.708Z,2.63
2023-10-01T07:25:40.317Z,3.70
2023-10-01T07:30:47.685Z,4.50
2023-10-01T07:36:01.748Z,3.90
2023-10-01T07:41:14.268Z,3.80
2023-10-01T07:46:20.182Z,4.20
2023-10-01T07:51:28.747Z,4.30
2023-10-01T07:56:34.295Z,4.23
2023-10-01T08:01:44.589Z,4.07
2023-10-01T08:06:50.995Z,3.70
2023-10-01T08:12:07.658Z,3.43
2023-10-01T08:17:11.205Z,3.60
2023-10-01T08:22:16.998Z,4.07
2023-10-01T08:27:33.209Z,3.50
2023-10-01T08:32:40.633Z,3.20
2023-10-01T08:37:50.791Z,4.40
2023-10-01T08:42:54.470Z,3.60
2023-10-01T08:48:01.347Z,3.50
2023-10-01T08:53:12.394Z,3.70
2023-10-01T08:58:17.312Z,3.37
2023-10-01T09:03:30.513Z,4.23
2023-10-01T09:08:43.989Z,3.70
2023-10-01T09:13:48.803Z,3.50
2023-10-01T09:19:05.461Z,3.63
2023-10-01T09:24:39.842Z,3.30
2023-10-01T09:29:46.078Z,3.63
2023-10-01T09:34:58.804Z,3.30
2023-10-01T09:40:15.259Z,3.40
2023-10-01T09:45:28.809Z,3.43
2023-10-01T09:50:41.006Z,3.40
2023-10-01T09:55:49.886Z,3.03
2023-10-01T10:00:54.881Z,3.13
2023-10-01T10:05:58.521Z,3.57
2023-10-01T10:11:07.383Z,3.93
2023-10-01T10:16:28.688Z,3.70
2023-10-01T10:21:37.690Z,3.60
2023-10-01T10:26:58.297Z,3.53
2023-10-01T10:32:12.003Z,3.70
2023-10-01T10:37:49.467Z,4.43
2023-10-01T10:43:21.157Z,3.90
2023-10-01T10:48:25.794Z,3.73
2023-10-01T10:53:44.162Z,3.80
2023-10-01T10:58:54.875Z,3.70
2023-10-01T11:03:59.413Z,4.37
2023-10-01T11:09:04.534Z,5.00
2023-10-01T11:14:17.411Z,4.33
2023-10-01T11:19:27.162Z,5.97
2023-10-01T11:24:32.294Z,5.80
2023-10-01T11:29:36.943Z,6.10
2023-10-01T11:34:47.031Z,6.20
2023-10-01T11:39:53.743Z,5.60
2023-10-01T11:44:58.603Z,6.43
2023-10-01T11:50:08.653Z,5.80
2023-10-01T11:55:21.482Z,5.97
2023-10-01T12:00:53.899Z,6.10
2023-10-01T12:05:58.731Z,6.20
2023-10-01T12:11:22.524Z,5.77
2023-10-01T12:16:31.208Z,6.00
2023-10-01T12:21:35.303Z,6.70
2023-10-01T12:26:40.631Z,5.40
2023-10-01T12:31:47.185Z,5.87
2023-10-01T12:36:52.781Z,6.83
2023-10-01T12:41:59.265Z,5.70
2023-10-01T12:47:08.731Z,6.03
2023-10-01T12:52:16.096Z,5.80
2023-10-01T12:57:23.619Z,5.80
2023-10-01T13:02:44.580Z,6.13
2023-10-01T13:07:50.188Z,6.00
2023-10-01T13:12:57.938Z,6.10
2023-10-01T13:18:05.793Z,6.70
2023-10-01T13:23:09.267Z,6.13
2023-10-01T13:28:19.361Z,6.97
2023-10-01T13:33:26.577Z,5.70
2023-10-01T13:38:57.915Z,6.63
2023-10-01T13:44:19.221Z,6.90
2023-10-01T13:49:41.864Z,5.90
2023-10-01T13:55:02.645Z,5.67
2023-10-01T14:00:25.672Z,5.77
2023-10-01T14:05:52.227Z,6.30
2023-10-01T14:10:55.772Z,6.60
2023-10-01T14:16:13.197Z,6.77
2023-10-01T14:21:19.088Z,6.40
2023-10-01T14:26:28.220Z,6.50
2023-10-01T14:31:51.388Z,5.57
2023-10-01T14:37:01.665Z,6.53
2023-10-01T14:42:05.725Z,6.40
2023-10-01T14:47:19.140Z,6.80
2023-10-01T14:52:25.004Z,7.93
2023-10-01T14:57:31.182Z,6.67
2023-10-01T15:02:37.617Z,7.47
2023-10-01T15:07:42.817Z,7.37
2023-10-01T15:13:03.101Z,6.13
2023-10-01T15:18:18.725Z,6.17
2023-10-01T15:23:23.780Z,6.63
2023-10-01T15:28:28.659Z,7.07
2023-10-01T15:33:32.170Z,8.10
2023-10-01T15:38:37.231Z,7.83
2023-10-01T15:43:51.882Z,19.60
2023-10-01T15:48:56.163Z,11.90
2023-10-01T15:54:01.776Z,18.53
2023-10-01T15:59:12.309Z,21.63
2023-10-01T16:04:17.254Z,19.63
2023-10-01T16:09:22.277Z,8.37
2023-10-01T16:14:28.136Z,10.60
2023-10-01T16:19:31.857Z,10.50
2023-10-01T16:24:40.412Z,8.90
2023-10-01T16:29:44.622Z,6.30
2023-10-01T16:34:48.098Z,7.10
2023-10-01T16:39:52.826Z,7.20
2023-10-01T16:44:58.555Z,8.07
2023-10-01T16:50:05.381Z,7.10
2023-10-01T16:55:10.672Z,7.17
2023-10-01T17:00:17.146Z,6.70
2023-10-01T17:05:21.044Z,7.40
2023-10-01T17:10:26.581Z,6.70
2023-10-01T17:15:42.801Z,7.00
2023-10-01T17:20:52.209Z,6.80
2023-10-01T17:26:01.769Z,7.60
2023-10-01T17:31:08.773Z,7.33
2023-10-01T17:36:13.564Z,7.23
2023-10-01T17:41:23.364Z,8.27
2023-10-01T17:46:33.383Z,7.07
2023-10-01T17:51:45.190Z,6.80
2023-10-01T17:56:49.991Z,6.30
2023-10-01T18:01:53.428Z,7.10
2023-10-01T18:06:56.978Z,6.60
2023-10-01T18:12:15.394Z,7.57
2023-10-01T18:17:19.043Z,6.23
2023-10-01T18:22:26.498Z,7.37
2023-10-01T18:27:31.528Z,7.50
2023-10-01T18:32:36.193Z,6.90
2023-10-01T18:37:39.626Z,6.50
2023-10-01T18:42:44.541Z,6.60
2023-10-01T18:47:49.432Z,6.40
2023-10-01T18:52:55.718Z,7.50
2023-10-01T18:58:00.475Z,7.70
2023-10-01T19:03:03.854Z,7.00
2023-10-01T19:08:08.433Z,7.93
2023-10-01T19:13:14.531Z,7.10
2023-10-01T19:18:20.615Z,7.20
2023-10-01T19:23:31.815Z,7.90
2023-10-01T19:28:37.486Z,8.13
2023-10-01T19:33:40.863Z,8.43
2023-10-01T19:38:48.727Z,8.50
2023-10-01T19:43:56.150Z,8.70
2023-10-01T19:49:01.177Z,7.93
2023-10-01T19:54:07.293Z,9.13
2023-10-01T19:59:17.655Z,8.30
2023-10-01T20:04:22.438Z,8.73
2023-10-01T20:09:28.227Z,8.67
2023-10-01T20:14:36.593Z,9.97
2023-10-01T20:19:44.527Z,8.47
2023-10-01T20:24:52.866Z,8.70
2023-10-01T20:29:57.971Z,8.30
2023-10-01T20:35:01.533Z,8.37
2023-10-01T20:40:11.280Z,9.00
2023-10-01T20:45:24.535Z,8.43
2023-10-01T20:50:32.573Z,8.67
2023-10-01T20:55:36.626Z,8.47
2023-10-01T21:00:43.340Z,8.57
2023-10-01T21:05:47.548Z,9.30
2023-10-01T21:10:51.366Z,9.83
2023-10-01T21:16:02.593Z,8.30
2023-10-01T21:21:06.291Z,8.27
2023-10-01T21:26:09.751Z,8.17
2023-10-01T21:31:21.401Z,8.73
2023-10-01T21:36:24.849Z,7.37
2023-10-01T21:41:35.721Z,7.63
2023-10-01T21:46:41.107Z,7.73
2023-10-01T21:51:47.271Z,8.60
2023-10-01T21:56:51.370Z,8.10
2023-10-01T22:02:03.021Z,8.00
2023-10-01T22:07:07.138Z,7.87
2023-10-01T22:12:15.488Z,7.83
2023-10-01T22:17:35.489Z,8.00
2023-10-01T22:22:50.517Z,7.17
2023-10-01T22:28:03.583Z,7.43
2023-10-01T22:33:17.045Z,8.53
2023-10-01T22:38:22.654Z,7.17
2023-10-01T22:43:28.390Z,7.90
2023-10-01T22:48:44.744Z,7.50
2023-10-01T22:53:48.188Z,6.57
2023-10-01T22:58:51.545Z,7.50
2023-10-01T23:04:10.504Z,6.17
2023-10-01T23:09:19.943Z,6.90
2023-10-01T23:14:23.733Z,7.10
2023-10-01T23:19:35.832Z,5.33
2023-10-01T23:24:52.994Z,6.80
2023-10-01T23:29:56.279Z,6.40
2023-10-01T23:35:01.519Z,6.43
2023-10-01T23:40:09.677Z,5.77
2023-10-01T23:45:17.804Z,6.20
2023-10-01T23:50:32.061Z,6.23
2023-10-01T23:55:37.132Z,6.50
